sensor_id;sensor_type;location;lat;lon;timestamp;pressure;altitude;pressure_sealevel;temperature;humidity
33795;BME280;51430;52.242;21.118;2023-01-29T00:00:49;101249.13;;;0.44;73.90
33795;BME280;51430;52.242;21.118;2023-01-29T00:03:39;101246.86;;;0.46;74.11
33795;BME280;51430;52.242;21.118;2023-01-29T00:06:26;101248.58;;;0.45;74.34
33795;BME280;51430;52.242;21.118;2023-01-29T00:09:13;101246.61;;;0.49;74.67
33795;BME280;51430;52.242;21.118;2023-01-29T00:12:00;101241.98;;;0.50;74.37
33795;BME280;51430;52.242;21.118;2023-01-29T00:14:46;101235.69;;;0.47;74.76
33795;BME280;51430;52.242;21.118;2023-01-29T00:17:33;101229.64;;;0.49;75.17
33795;BME280;51430;52.242;21.118;2023-01-29T00:20:20;101226.29;;;0.54;75.47
33795;BME280;51430;52.242;21.118;2023-01-29T00:23:06;101218.23;;;0.45;75.16
33795;BME280;51430;52.242;21.118;2023-01-29T00:25:53;101215.75;;;0.41;75.28
33795;BME280;51430;52.242;21.118;2023-01-29T00:28:40;101213.38;;;0.31;75.38
33795;BME280;51430;52.242;21.118;2023-01-29T00:31:27;101216.93;;;0.24;76.01
33795;BME280;51430;52.242;21.118;2023-01-29T00:34:14;101212.82;;;0.33;76.00
33795;BME280;51430;52.242;21.118;2023-01-29T00:37:01;101210.52;;;0.36;75.90
33795;BME280;51430;52.242;21.118;2023-01-29T00:39:54;101211.41;;;0.35;76.29
33795;BME280;51430;52.242;21.118;2023-01-29T00:42:40;101209.23;;;0.32;76.17
33795;BME280;51430;52.242;21.118;2023-01-29T00:45:48;101204.84;;;0.30;76.77
33795;BME280;51430;52.242;21.118;2023-01-29T00:48:34;101197.13;;;0.29;75.97
33795;BME280;51430;52.242;21.118;2023-01-29T00:51:21;101200.77;;;0.18;76.16
33795;BME280;51430;52.242;21.118;2023-01-29T00:54:08;101199.39;;;0.19;76.29
33795;BME280;51430;52.242;21.118;2023-01-29T00:56:55;101197.56;;;0.24;76.31
33795;BME280;51430;52.242;21.118;2023-01-29T00:59:41;101196.70;;;0.33;75.62
33795;BME280;51430;52.242;21.118;2023-01-29T01:02:28;101194.91;;;0.20;75.30
33795;BME280;51430;52.242;21.118;2023-01-29T01:05:34;101184.95;;;0.12;75.37
33795;BME280;51430;52.242;21.118;2023-01-29T01:08:22;101180.42;;;0.16;75.58
33795;BME280;51430;52.242;21.118;2023-01-29T01:11:27;101174.55;;;0.18;75.27
33795;BME280;51430;52.242;21.118;2023-01-29T01:14:14;101165.95;;;0.19;75.47
33795;BME280;51430;52.242;21.118;2023-01-29T01:17:01;101154.27;;;0.20;75.31
33795;BME280;51430;52.242;21.118;2023-01-29T01:19:48;101155.05;;;0.24;75.49
33795;BME280;51430;52.242;21.118;2023-01-29T01:22:34;101151.70;;;0.21;74.88
33795;BME280;51430;52.242;21.118;2023-01-29T01:25:23;101148.39;;;0.15;75.05
33795;BME280;51430;52.242;21.118;2023-01-29T01:28:10;101152.36;;;0.22;75.27
33795;BME280;51430;52.242;21.118;2023-01-29T01:31:07;101149.21;;;0.25;74.81
33795;BME280;51430;52.242;21.118;2023-01-29T01:33:54;101149.45;;;0.21;74.97
33795;BME280;51430;52.242;21.118;2023-01-29T01:36:41;101145.11;;;0.24;74.83
33795;BME280;51430;52.242;21.118;2023-01-29T01:39:28;101145.94;;;0.17;75.34
33795;BME280;51430;52.242;21.118;2023-01-29T01:42:14;101152.58;;;0.11;75.78
33795;BME280;51430;52.242;21.118;2023-01-29T01:45:03;101145.83;;;-0.03;76.29
33795;BME280;51430;52.242;21.118;2023-01-29T01:50:59;101143.16;;;0.11;75.97
33795;BME280;51430;52.242;21.118;2023-01-29T01:54:00;101148.91;;;0.06;75.73
33795;BME280;51430;52.242;21.118;2023-01-29T01:56:56;101145.67;;;0.05;75.38
33795;BME280;51430;52.242;21.118;2023-01-29T01:59:58;101149.30;;;0.12;75.45
33795;BME280;51430;52.242;21.118;2023-01-29T02:02:49;101154.10;;;0.12;75.16
33795;BME280;51430;52.242;21.118;2023-01-29T02:05:55;101156.19;;;0.10;75.09
33795;BME280;51430;52.242;21.118;2023-01-29T02:09:14;101159.00;;;0.08;74.91
33795;BME280;51430;52.242;21.118;2023-01-29T02:12:21;101157.90;;;0.02;75.92
33795;BME280;51430;52.242;21.118;2023-01-29T02:15:09;101159.58;;;0.13;75.55
33795;BME280;51430;52.242;21.118;2023-01-29T02:17:58;101155.17;;;0.10;75.40
33795;BME280;51430;52.242;21.118;2023-01-29T02:27:05;101143.16;;;0.10;75.49
33795;BME280;51430;52.242;21.118;2023-01-29T02:30:05;101149.17;;;0.10;75.76
33795;BME280;51430;52.242;21.118;2023-01-29T02:33:04;101142.32;;;0.01;75.95
33795;BME280;51430;52.242;21.118;2023-01-29T02:39:29;101137.74;;;0.08;76.03
33795;BME280;51430;52.242;21.118;2023-01-29T02:42:27;101129.77;;;-0.05;76.05
33795;BME280;51430;52.242;21.118;2023-01-29T02:45:25;101125.43;;;-0.02;76.10
33795;BME280;51430;52.242;21.118;2023-01-29T02:48:19;101120.09;;;-0.01;76.54
33795;BME280;51430;52.242;21.118;2023-01-29T02:51:20;101123.79;;;0.02;76.83
33795;BME280;51430;52.242;21.118;2023-01-29T02:54:22;101127.87;;;0.04;76.59
33795;BME280;51430;52.242;21.118;2023-01-29T02:57:22;101122.59;;;-0.06;76.54
33795;BME280;51430;52.242;21.118;2023-01-29T03:00:15;101121.63;;;-0.01;76.83
33795;BME280;51430;52.242;21.118;2023-01-29T03:03:13;101120.13;;;0.06;76.89
33795;BME280;51430;52.242;21.118;2023-01-29T03:06:17;101115.08;;;0.09;76.63
33795;BME280;51430;52.242;21.118;2023-01-29T03:09:13;101107.94;;;0.06;76.93
33795;BME280;51430;52.242;21.118;2023-01-29T03:12:29;101107.13;;;0.04;77.25
33795;BME280;51430;52.242;21.118;2023-01-29T03:15:22;101108.54;;;0.11;77.32
33795;BME280;51430;52.242;21.118;2023-01-29T03:18:22;101114.58;;;0.09;77.69
33795;BME280;51430;52.242;21.118;2023-01-29T03:21:18;101107.88;;;0.09;77.91
33795;BME280;51430;52.242;21.118;2023-01-29T03:24:49;101104.19;;;0.05;78.03
33795;BME280;51430;52.242;21.118;2023-01-29T03:27:58;101103.77;;;0.01;77.91
33795;BME280;51430;52.242;21.118;2023-01-29T03:31:07;101098.80;;;-0.07;78.39
33795;BME280;51430;52.242;21.118;2023-01-29T03:34:41;101100.21;;;-0.09;78.88
33795;BME280;51430;52.242;21.118;2023-01-29T03:37:43;101104.16;;;-0.02;79.03
33795;BME280;51430;52.242;21.118;2023-01-29T03:40:55;101101.23;;;-0.01;78.65
33795;BME280;51430;52.242;21.118;2023-01-29T03:47:36;101100.45;;;0.04;78.40
33795;BME280;51430;52.242;21.118;2023-01-29T03:53:49;101098.66;;;-0.01;78.72
33795;BME280;51430;52.242;21.118;2023-01-29T03:57:11;101099.40;;;-0.04;78.91
33795;BME280;51430;52.242;21.118;2023-01-29T04:00:18;101094.43;;;-0.03;79.05
33795;BME280;51430;52.242;21.118;2023-01-29T04:03:16;101090.02;;;-0.06;79.31
33795;BME280;51430;52.242;21.118;2023-01-29T04:06:18;101083.48;;;0.03;79.30
33795;BME280;51430;52.242;21.118;2023-01-29T04:09:27;101088.41;;;0.06;79.33
33795;BME280;51430;52.242;21.118;2023-01-29T04:12:30;101092.61;;;0.10;79.16
33795;BME280;51430;52.242;21.118;2023-01-29T04:15:23;101090.55;;;0.10;78.91
33795;BME280;51430;52.242;21.118;2023-01-29T04:18:11;101085.02;;;0.12;79.07
33795;BME280;51430;52.242;21.118;2023-01-29T04:20:59;101080.73;;;0.13;78.95
33795;BME280;51430;52.242;21.118;2023-01-29T04:23:46;101075.64;;;0.10;79.05
33795;BME280;51430;52.242;21.118;2023-01-29T04:26:57;101078.18;;;0.03;79.13
33795;BME280;51430;52.242;21.118;2023-01-29T04:30:12;101072.79;;;-0.01;79.19
33795;BME280;51430;52.242;21.118;2023-01-29T04:36:03;101059.29;;;-0.02;79.29
33795;BME280;51430;52.242;21.118;2023-01-29T04:42:27;101062.77;;;0.02;79.17
33795;BME280;51430;52.242;21.118;2023-01-29T04:48:41;101052.08;;;0.06;79.03
33795;BME280;51430;52.242;21.118;2023-01-29T04:51:39;101049.56;;;0.11;78.97
33795;BME280;51430;52.242;21.118;2023-01-29T04:58:03;101049.68;;;0.14;79.09
33795;BME280;51430;52.242;21.118;2023-01-29T05:00:53;101046.70;;;0.17;79.04
33795;BME280;51430;52.242;21.118;2023-01-29T05:03:41;101047.73;;;0.17;78.96
33795;BME280;51430;52.242;21.118;2023-01-29T05:06:30;101046.61;;;0.21;78.76
33795;BME280;51430;52.242;21.118;2023-01-29T05:09:18;101048.66;;;0.21;78.75
33795;BME280;51430;52.242;21.118;2023-01-29T05:12:06;101048.29;;;0.31;78.54
33795;BME280;51430;52.242;21.118;2023-01-29T05:15:00;101048.34;;;0.28;78.59
33795;BME280;51430;52.242;21.118;2023-01-29T05:17:47;101048.52;;;0.20;78.81
33795;BME280;51430;52.242;21.118;2023-01-29T05:20:37;101043.42;;;0.25;78.98
33795;BME280;51430;52.242;21.118;2023-01-29T05:23:24;101044.89;;;0.28;78.83
33795;BME280;51430;52.242;21.118;2023-01-29T05:26:11;101046.61;;;0.36;78.73
33795;BME280;51430;52.242;21.118;2023-01-29T05:29:16;101049.98;;;0.38;78.39
33795;BME280;51430;52.242;21.118;2023-01-29T05:32:03;101041.74;;;0.39;78.60
33795;BME280;51430;52.242;21.118;2023-01-29T05:34:50;101032.27;;;0.41;78.68
33795;BME280;51430;52.242;21.118;2023-01-29T05:37:37;101031.20;;;0.42;78.51
33795;BME280;51430;52.242;21.118;2023-01-29T05:40:25;101023.41;;;0.38;78.28
33795;BME280;51430;52.242;21.118;2023-01-29T05:43:15;101016.75;;;0.37;78.23
33795;BME280;51430;52.242;21.118;2023-01-29T05:46:03;101021.13;;;0.33;78.56
33795;BME280;51430;52.242;21.118;2023-01-29T05:48:51;101023.70;;;0.33;78.52
33795;BME280;51430;52.242;21.118;2023-01-29T05:51:38;101022.85;;;0.32;78.77
33795;BME280;51430;52.242;21.118;2023-01-29T05:54:24;101018.84;;;0.36;78.50
33795;BME280;51430;52.242;21.118;2023-01-29T05:57:11;101015.48;;;0.39;78.44
33795;BME280;51430;52.242;21.118;2023-01-29T05:59:57;101016.48;;;0.27;78.79
33795;BME280;51430;52.242;21.118;2023-01-29T06:02:44;101015.67;;;0.32;78.76
33795;BME280;51430;52.242;21.118;2023-01-29T06:05:31;101014.40;;;0.28;78.68
33795;BME280;51430;52.242;21.118;2023-01-29T06:08:18;101020.60;;;0.27;78.59
33795;BME280;51430;52.242;21.118;2023-01-29T06:11:10;101024.27;;;0.23;78.81
33795;BME280;51430;52.242;21.118;2023-01-29T06:13:57;101022.27;;;0.20;78.71
33795;BME280;51430;52.242;21.118;2023-01-29T06:16:43;101022.75;;;0.23;78.96
33795;BME280;51430;52.242;21.118;2023-01-29T06:19:30;101026.23;;;0.27;78.72
33795;BME280;51430;52.242;21.118;2023-01-29T06:22:17;101020.29;;;0.33;78.48
33795;BME280;51430;52.242;21.118;2023-01-29T06:25:04;101019.88;;;0.35;78.36
33795;BME280;51430;52.242;21.118;2023-01-29T06:27:50;101024.15;;;0.36;78.50
33795;BME280;51430;52.242;21.118;2023-01-29T06:30:37;101022.92;;;0.37;78.35
33795;BME280;51430;52.242;21.118;2023-01-29T06:33:24;101024.18;;;0.42;78.13
33795;BME280;51430;52.242;21.118;2023-01-29T06:36:11;101021.59;;;0.50;78.16
33795;BME280;51430;52.242;21.118;2023-01-29T06:38:57;101021.15;;;0.54;78.42
33795;BME280;51430;52.242;21.118;2023-01-29T06:41:44;101023.99;;;0.57;78.04
33795;BME280;51430;52.242;21.118;2023-01-29T06:44:31;101022.54;;;0.60;77.82
33795;BME280;51430;52.242;21.118;2023-01-29T06:47:19;101018.69;;;0.56;77.56
33795;BME280;51430;52.242;21.118;2023-01-29T06:50:05;101022.61;;;0.50;77.84
33795;BME280;51430;52.242;21.118;2023-01-29T06:52:52;101020.45;;;0.54;77.98
33795;BME280;51430;52.242;21.118;2023-01-29T06:55:39;101021.77;;;0.56;77.94
33795;BME280;51430;52.242;21.118;2023-01-29T06:58:26;101023.58;;;0.60;77.86
33795;BME280;51430;52.242;21.118;2023-01-29T07:01:13;101024.38;;;0.62;77.46
33795;BME280;51430;52.242;21.118;2023-01-29T07:04:20;101026.88;;;0.59;77.61
33795;BME280;51430;52.242;21.118;2023-01-29T07:07:07;101025.09;;;0.68;76.92
33795;BME280;51430;52.242;21.118;2023-01-29T07:09:58;101024.28;;;0.59;77.34
33795;BME280;51430;52.242;21.118;2023-01-29T07:12:45;101012.20;;;0.48;77.87
33795;BME280;51430;52.242;21.118;2023-01-29T07:15:31;101003.66;;;0.54;77.52
33795;BME280;51430;52.242;21.118;2023-01-29T07:18:18;100998.98;;;0.56;77.59
33795;BME280;51430;52.242;21.118;2023-01-29T07:21:05;100995.79;;;0.60;77.60
33795;BME280;51430;52.242;21.118;2023-01-29T07:23:58;101000.82;;;0.71;76.94
33795;BME280;51430;52.242;21.118;2023-01-29T07:26:44;101008.13;;;0.80;76.68
33795;BME280;51430;52.242;21.118;2023-01-29T07:29:31;101011.80;;;0.77;76.76
33795;BME280;51430;52.242;21.118;2023-01-29T07:32:17;101012.06;;;0.88;76.25
33795;BME280;51430;52.242;21.118;2023-01-29T07:35:06;101016.85;;;0.88;76.19
33795;BME280;51430;52.242;21.118;2023-01-29T07:37:53;101020.14;;;0.87;76.01
33795;BME280;51430;52.242;21.118;2023-01-29T07:44:19;101030.84;;;0.92;75.81
33795;BME280;51430;52.242;21.118;2023-01-29T07:47:05;101035.48;;;0.91;75.58
33795;BME280;51430;52.242;21.118;2023-01-29T07:50:28;101031.59;;;0.89;75.91
33795;BME280;51430;52.242;21.118;2023-01-29T07:53:14;101032.14;;;0.87;75.68
33795;BME280;51430;52.242;21.118;2023-01-29T07:56:02;101022.99;;;0.83;76.08
33795;BME280;51430;52.242;21.118;2023-01-29T07:58:47;101014.97;;;0.94;75.90
33795;BME280;51430;52.242;21.118;2023-01-29T08:01:32;101009.89;;;0.98;75.59
33795;BME280;51430;52.242;21.118;2023-01-29T08:04:17;101006.66;;;0.90;75.70
33795;BME280;51430;52.242;21.118;2023-01-29T08:07:02;101002.70;;;0.91;75.77
33795;BME280;51430;52.242;21.118;2023-01-29T08:09:48;101007.50;;;0.98;75.31
33795;BME280;51430;52.242;21.118;2023-01-29T08:12:33;101008.57;;;0.96;75.58
33795;BME280;51430;52.242;21.118;2023-01-29T08:15:18;101007.42;;;1.07;75.45
33795;BME280;51430;52.242;21.118;2023-01-29T08:18:06;101003.36;;;1.05;75.12
33795;BME280;51430;52.242;21.118;2023-01-29T08:20:52;101000.87;;;1.02;75.13
33795;BME280;51430;52.242;21.118;2023-01-29T08:23:38;100991.07;;;0.89;75.61
33795;BME280;51430;52.242;21.118;2023-01-29T08:26:24;100993.05;;;0.92;75.69
33795;BME280;51430;52.242;21.118;2023-01-29T08:33:37;100992.11;;;1.09;74.95
33795;BME280;51430;52.242;21.118;2023-01-29T08:36:38;100993.88;;;1.06;74.98
33795;BME280;51430;52.242;21.118;2023-01-29T08:39:25;100998.44;;;0.97;75.38
33795;BME280;51430;52.242;21.118;2023-01-29T08:42:12;101000.84;;;1.03;75.31
33795;BME280;51430;52.242;21.118;2023-01-29T08:44:59;101004.21;;;1.05;75.02
33795;BME280;51430;52.242;21.118;2023-01-29T08:47:47;101003.14;;;0.94;75.38
33795;BME280;51430;52.242;21.118;2023-01-29T08:50:43;101001.63;;;0.99;75.31
33795;BME280;51430;52.242;21.118;2023-01-29T08:54:47;100994.30;;;0.97;75.49
33795;BME280;51430;52.242;21.118;2023-01-29T08:58:35;100989.90;;;0.89;75.59
33795;BME280;51430;52.242;21.118;2023-01-29T09:01:57;100981.61;;;0.97;75.70
33795;BME280;51430;52.242;21.118;2023-01-29T09:05:52;100973.61;;;1.13;75.56
33795;BME280;51430;52.242;21.118;2023-01-29T09:09:52;100971.08;;;1.24;75.25
33795;BME280;51430;52.242;21.118;2023-01-29T09:19:24;100958.84;;;1.14;75.83
33795;BME280;51430;52.242;21.118;2023-01-29T09:33:48;100952.14;;;1.67;75.29
33795;BME280;51430;52.242;21.118;2023-01-29T09:36:34;100955.77;;;1.72;75.47
33795;BME280;51430;52.242;21.118;2023-01-29T09:39:21;100949.31;;;1.58;76.07
33795;BME280;51430;52.242;21.118;2023-01-29T09:48:11;100942.89;;;1.42;77.97
33795;BME280;51430;52.242;21.118;2023-01-29T09:51:03;100938.86;;;1.34;78.77
33795;BME280;51430;52.242;21.118;2023-01-29T09:58:03;100921.40;;;1.88;77.69
33795;BME280;51430;52.242;21.118;2023-01-29T10:25:42;100894.42;;;2.35;76.42
33795;BME280;51430;52.242;21.118;2023-01-29T10:39:19;100891.77;;;1.90;79.02
33795;BME280;51430;52.242;21.118;2023-01-29T10:43:02;100892.54;;;1.82;80.16
33795;BME280;51430;52.242;21.118;2023-01-29T11:00:44;100875.42;;;1.91;81.03
33795;BME280;51430;52.242;21.118;2023-01-29T11:04:43;100873.48;;;1.65;81.33
33795;BME280;51430;52.242;21.118;2023-01-29T11:12:49;100859.60;;;1.31;83.72
33795;BME280;51430;52.242;21.118;2023-01-29T11:16:28;100852.11;;;1.24;84.48
33795;BME280;51430;52.242;21.118;2023-01-29T11:19:45;100852.79;;;1.24;84.92
33795;BME280;51430;52.242;21.118;2023-01-29T11:24:15;100838.83;;;1.25;85.12
33795;BME280;51430;52.242;21.118;2023-01-29T11:27:49;100837.98;;;1.42;84.53
33795;BME280;51430;52.242;21.118;2023-01-29T11:31:00;100825.56;;;1.49;83.89
33795;BME280;51430;52.242;21.118;2023-01-29T11:45:49;100791.65;;;1.88;82.35
33795;BME280;51430;52.242;21.118;2023-01-29T11:48:59;100785.21;;;1.75;82.32
33795;BME280;51430;52.242;21.118;2023-01-29T11:52:39;100780.34;;;1.50;83.61
33795;BME280;51430;52.242;21.118;2023-01-29T11:56:49;100777.95;;;1.44;83.69
33795;BME280;51430;52.242;21.118;2023-01-29T11:59:50;100785.15;;;1.40;83.91
33795;BME280;51430;52.242;21.118;2023-01-29T12:02:43;100781.77;;;1.43;84.00
33795;BME280;51430;52.242;21.118;2023-01-29T12:05:32;100775.59;;;1.48;83.84
33795;BME280;51430;52.242;21.118;2023-01-29T12:08:19;100764.86;;;1.66;83.53
33795;BME280;51430;52.242;21.118;2023-01-29T12:11:22;100759.83;;;1.67;83.36
33795;BME280;51430;52.242;21.118;2023-01-29T12:14:30;100764.55;;;1.50;83.91
33795;BME280;51430;52.242;21.118;2023-01-29T12:17:22;100756.64;;;1.40;84.25
33795;BME280;51430;52.242;21.118;2023-01-29T12:20:17;100746.90;;;1.43;84.66
33795;BME280;51430;52.242;21.118;2023-01-29T12:26:43;100736.46;;;1.37;85.07
33795;BME280;51430;52.242;21.118;2023-01-29T12:37:15;100730.16;;;1.35;85.68
33795;BME280;51430;52.242;21.118;2023-01-29T12:44:18;100721.40;;;1.09;86.97
33795;BME280;51430;52.242;21.118;2023-01-29T12:47:19;100716.92;;;1.15;86.94
33795;BME280;51430;52.242;21.118;2023-01-29T12:50:24;100718.04;;;1.17;86.70
33795;BME280;51430;52.242;21.118;2023-01-29T12:56:08;100697.35;;;1.36;86.25
33795;BME280;51430;52.242;21.118;2023-01-29T12:58:59;100699.41;;;1.35;86.18
33795;BME280;51430;52.242;21.118;2023-01-29T13:01:56;100696.86;;;1.30;86.37
33795;BME280;51430;52.242;21.118;2023-01-29T13:04:49;100690.73;;;1.23;86.83
33795;BME280;51430;52.242;21.118;2023-01-29T13:07:45;100694.64;;;1.29;86.91
33795;BME280;51430;52.242;21.118;2023-01-29T13:10:40;100704.05;;;1.30;87.10
33795;BME280;51430;52.242;21.118;2023-01-29T13:13:33;100713.95;;;1.27;86.96
33795;BME280;51430;52.242;21.118;2023-01-29T13:16:27;100709.05;;;1.24;87.32
33795;BME280;51430;52.242;21.118;2023-01-29T13:19:26;100708.30;;;1.26;87.59
33795;BME280;51430;52.242;21.118;2023-01-29T13:22:26;100717.39;;;1.42;87.32
33795;BME280;51430;52.242;21.118;2023-01-29T13:25:18;100714.45;;;1.48;87.32
33795;BME280;51430;52.242;21.118;2023-01-29T13:28:15;100707.11;;;1.47;87.22
33795;BME280;51430;52.242;21.118;2023-01-29T13:34:12;100705.67;;;1.43;87.66
33795;BME280;51430;52.242;21.118;2023-01-29T13:37:02;100702.90;;;1.34;88.59
33795;BME280;51430;52.242;21.118;2023-01-29T13:39:55;100698.31;;;1.22;89.12
33795;BME280;51430;52.242;21.118;2023-01-29T13:42:47;100697.96;;;1.12;89.52
33795;BME280;51430;52.242;21.118;2023-01-29T13:45:42;100688.85;;;1.12;90.18
33795;BME280;51430;52.242;21.118;2023-01-29T13:48:30;100676.83;;;1.23;89.93
33795;BME280;51430;52.242;21.118;2023-01-29T13:51:20;100659.26;;;1.19;89.58
33795;BME280;51430;52.242;21.118;2023-01-29T13:54:16;100664.05;;;1.20;89.95
33795;BME280;51430;52.242;21.118;2023-01-29T14:06:38;100676.46;;;0.97;91.52
33795;BME280;51430;52.242;21.118;2023-01-29T14:09:33;100670.05;;;1.10;91.63
33795;BME280;51430;52.242;21.118;2023-01-29T14:15:21;100685.20;;;1.19;91.57
33795;BME280;51430;52.242;21.118;2023-01-29T14:19:20;100703.96;;;1.12;91.93
33795;BME280;51430;52.242;21.118;2023-01-29T14:23:44;100709.39;;;1.14;92.18
33795;BME280;51430;52.242;21.118;2023-01-29T14:42:35;100693.51;;;0.90;93.41
33795;BME280;51430;52.242;21.118;2023-01-29T14:45:51;100677.73;;;0.78;93.91
33795;BME280;51430;52.242;21.118;2023-01-29T15:00:39;100661.27;;;0.99;93.54
33795;BME280;51430;52.242;21.118;2023-01-29T15:30:25;100642.05;;;0.99;94.64
33795;BME280;51430;52.242;21.118;2023-01-29T15:43:57;100630.85;;;1.11;93.78
33795;BME280;51430;52.242;21.118;2023-01-29T16:11:50;100620.05;;;1.26;94.55
33795;BME280;51430;52.242;21.118;2023-01-29T16:15:31;100618.91;;;1.14;94.96
33795;BME280;51430;52.242;21.118;2023-01-29T16:57:39;100632.00;;;1.08;97.23
33795;BME280;51430;52.242;21.118;2023-01-29T17:00:43;100629.54;;;0.88;98.38
33795;BME280;51430;52.242;21.118;2023-01-29T17:18:38;100600.87;;;0.88;99.78
33795;BME280;51430;52.242;21.118;2023-01-29T17:21:28;100601.91;;;0.78;100.00
33795;BME280;51430;52.242;21.118;2023-01-29T17:24:15;100595.72;;;0.83;100.00
33795;BME280;51430;52.242;21.118;2023-01-29T17:27:02;100598.00;;;0.87;100.00
33795;BME280;51430;52.242;21.118;2023-01-29T17:29:48;100589.77;;;0.87;100.00
33795;BME280;51430;52.242;21.118;2023-01-29T17:34:10;100579.94;;;0.94;100.00
33795;BME280;51430;52.242;21.118;2023-01-29T17:36:57;100576.69;;;0.83;100.00
33795;BME280;51430;52.242;21.118;2023-01-29T17:40:23;100573.55;;;0.90;100.00
33795;BME280;51430;52.242;21.118;2023-01-29T17:43:13;100568.68;;;0.86;100.00
33795;BME280;51430;52.242;21.118;2023-01-29T17:46:03;100567.23;;;0.89;100.00
33795;BME280;51430;52.242;21.118;2023-01-29T17:49:31;100556.08;;;0.84;100.00
33795;BME280;51430;52.242;21.118;2023-01-29T17:52:21;100547.94;;;0.81;100.00
33795;BME280;51430;52.242;21.118;2023-01-29T17:55:11;100542.94;;;0.87;100.00
33795;BME280;51430;52.242;21.118;2023-01-29T17:57:58;100532.55;;;0.85;100.00
33795;BME280;51430;52.242;21.118;2023-01-29T18:03:11;100522.61;;;0.94;100.00
33795;BME280;51430;52.242;21.118;2023-01-29T18:06:49;100519.19;;;0.89;100.00
33795;BME280;51430;52.242;21.118;2023-01-29T18:21:28;100478.14;;;1.24;98.23
33795;BME280;51430;52.242;21.118;2023-01-29T18:25:38;100475.52;;;1.07;97.56
33795;BME280;51430;52.242;21.118;2023-01-29T18:29:23;100474.88;;;1.05;98.01
33795;BME280;51430;52.242;21.118;2023-01-29T18:43:15;100478.92;;;1.31;96.69
33795;BME280;51430;52.242;21.118;2023-01-29T18:46:03;100482.58;;;1.25;96.18
33795;BME280;51430;52.242;21.118;2023-01-29T18:48:50;100481.33;;;1.16;96.83
33795;BME280;51430;52.242;21.118;2023-01-29T18:51:39;100481.44;;;1.19;96.54
33795;BME280;51430;52.242;21.118;2023-01-29T18:56:22;100473.88;;;1.09;97.02
33795;BME280;51430;52.242;21.118;2023-01-29T19:00:11;100469.27;;;1.13;97.46
33795;BME280;51430;52.242;21.118;2023-01-29T19:02:57;100466.39;;;1.07;97.54
33795;BME280;51430;52.242;21.118;2023-01-29T19:05:43;100463.12;;;1.17;97.55
33795;BME280;51430;52.242;21.118;2023-01-29T19:08:29;100459.70;;;1.26;96.96
33795;BME280;51430;52.242;21.118;2023-01-29T19:11:15;100460.33;;;1.23;96.29
33795;BME280;51430;52.242;21.118;2023-01-29T19:14:01;100458.98;;;1.22;96.38
33795;BME280;51430;52.242;21.118;2023-01-29T19:16:46;100453.60;;;1.28;96.12
33795;BME280;51430;52.242;21.118;2023-01-29T19:19:31;100460.99;;;1.28;95.97
33795;BME280;51430;52.242;21.118;2023-01-29T19:22:17;100461.41;;;1.22;95.95
33795;BME280;51430;52.242;21.118;2023-01-29T19:26:25;100462.23;;;1.28;96.03
33795;BME280;51430;52.242;21.118;2023-01-29T19:29:12;100453.36;;;1.21;96.30
33795;BME280;51430;52.242;21.118;2023-01-29T19:31:59;100445.34;;;1.24;96.39
33795;BME280;51430;52.242;21.118;2023-01-29T19:34:46;100438.52;;;1.32;96.31
33795;BME280;51430;52.242;21.118;2023-01-29T19:37:33;100437.54;;;1.26;96.32
33795;BME280;51430;52.242;21.118;2023-01-29T19:51:16;100421.36;;;1.45;95.39
33795;BME280;51430;52.242;21.118;2023-01-29T19:54:14;100418.23;;;1.42;95.02
33795;BME280;51430;52.242;21.118;2023-01-29T20:09:05;100407.96;;;1.45;94.68
33795;BME280;51430;52.242;21.118;2023-01-29T20:12:30;100405.77;;;1.44;94.80
33795;BME280;51430;52.242;21.118;2023-01-29T20:15:52;100397.49;;;1.32;95.14
33795;BME280;51430;52.242;21.118;2023-01-29T20:19:21;100391.41;;;1.25;96.07
33795;BME280;51430;52.242;21.118;2023-01-29T20:33:20;100375.16;;;1.41;95.67
33795;BME280;51430;52.242;21.118;2023-01-29T20:36:35;100365.50;;;1.38;95.80
33795;BME280;51430;52.242;21.118;2023-01-29T20:50:28;100342.44;;;1.52;95.05
33795;BME280;51430;52.242;21.118;2023-01-29T20:53:27;100334.30;;;1.40;95.13
33795;BME280;51430;52.242;21.118;2023-01-29T20:57:22;100329.78;;;1.33;95.78
33795;BME280;51430;52.242;21.118;2023-01-29T21:11:47;100318.80;;;1.50;94.67
33795;BME280;51430;52.242;21.118;2023-01-29T21:14:34;100313.45;;;1.52;94.45
33795;BME280;51430;52.242;21.118;2023-01-29T21:17:25;100313.84;;;1.55;94.59
33795;BME280;51430;52.242;21.118;2023-01-29T21:20:14;100313.05;;;1.57;94.66
33795;BME280;51430;52.242;21.118;2023-01-29T21:24:53;100312.09;;;1.59;94.58
33795;BME280;51430;52.242;21.118;2023-01-29T21:28:26;100306.98;;;1.37;95.77
33795;BME280;51430;52.242;21.118;2023-01-29T21:42:28;100301.94;;;1.64;95.62
33795;BME280;51430;52.242;21.118;2023-01-29T21:45:53;100290.05;;;1.48;96.07
33795;BME280;51430;52.242;21.118;2023-01-29T21:49:43;100292.10;;;1.44;96.49
33795;BME280;51430;52.242;21.118;2023-01-29T21:53:02;100291.00;;;1.33;97.28
33795;BME280;51430;52.242;21.118;2023-01-29T21:56:38;100280.70;;;1.28;97.67
33795;BME280;51430;52.242;21.118;2023-01-29T22:00:38;100271.56;;;1.33;97.56
33795;BME280;51430;52.242;21.118;2023-01-29T22:04:16;100266.34;;;1.27;97.83
33795;BME280;51430;52.242;21.118;2023-01-29T22:08:15;100257.65;;;1.34;98.03
33795;BME280;51430;52.242;21.118;2023-01-29T22:11:08;100256.65;;;1.33;97.97
33795;BME280;51430;52.242;21.118;2023-01-29T22:13:53;100254.63;;;1.32;98.05
33795;BME280;51430;52.242;21.118;2023-01-29T22:16:39;100247.44;;;1.36;98.07
33795;BME280;51430;52.242;21.118;2023-01-29T22:25:28;100226.14;;;1.44;98.35
33795;BME280;51430;52.242;21.118;2023-01-29T22:29:30;100211.54;;;1.44;98.31